Time;durP1;ratioP1;P1;durP2;ratioP2;P2;SDS_P1;SDS_P2;PMS_P1;PMS_P2;Temp;Humidity;BMP_temperature;BMP_pressure;BME280_temperature;BME280_humidity;BME280_pressure;Samples;Min_cycle;Max_cycle;Signal;HPM_P1;HPM_P2
2021/12/08 00:01:01;;;;;;;9.15;4.18;;;;;;;2.95;100.00;99068.66;5085477;28;20028;-85
2021/12/08 00:03:28;;;;;;;7.88;4.20;;;;;;;2.95;100.00;99080.03;5087886;28;20408;-85
2021/12/08 00:05:54;;;;;;;6.55;4.70;;;;;;;2.95;100.00;99071.28;5068792;28;20465;-84
2021/12/08 00:08:22;;;;;;;7.22;3.97;;;;;;;2.95;100.00;99072.13;5069151;28;20024;-86
2021/12/08 00:13:28;;;;;;;7.47;4.22;;;;;;;2.96;100.00;99052.81;5086959;28;20127;-87
2021/12/08 00:15:57;;;;;;;6.60;3.92;;;;;;;2.98;100.00;99050.97;5085860;28;20032;-86
2021/12/08 00:18:26;;;;;;;7.22;4.30;;;;;;;2.99;100.00;99036.91;5073845;28;20036;-87
2021/12/08 00:20:55;;;;;;;9.25;4.15;;;;;;;3.01;100.00;99031.59;5087630;28;20366;-87
2021/12/08 00:23:21;;;;;;;5.47;3.92;;;;;;;3.07;100.00;99054.09;5085591;28;20036;-87
2021/12/08 00:25:47;;;;;;;7.22;3.70;;;;;;;3.10;100.00;99062.69;5085687;28;20028;-87
2021/12/08 00:28:14;;;;;;;12.63;4.97;;;;;;;3.19;100.00;99058.75;5085115;28;20103;-87
2021/12/08 00:30:42;;;;;;;6.93;3.97;;;;;;;3.27;100.00;99068.88;5086287;28;20035;-87
2021/12/08 00:33:08;;;;;;;8.70;3.80;;;;;;;3.20;100.00;99040.25;5084787;28;20074;-87
2021/12/08 00:35:35;;;;;;;6.63;3.53;;;;;;;3.30;100.00;99064.31;5084958;28;20043;-87
2021/12/08 00:38:00;;;;;;;9.07;3.72;;;;;;;3.41;100.00;99059.38;5084293;28;20073;-87
2021/12/08 00:40:27;;;;;;;9.00;4.22;;;;;;;3.38;100.00;99041.09;5086373;28;20055;-87
2021/12/08 00:42:54;;;;;;;8.07;3.85;;;;;;;3.45;100.00;99054.81;5088786;28;20024;-87
2021/12/08 00:45:21;;;;;;;6.55;3.63;;;;;;;3.39;100.00;99047.25;5087885;28;20118;-87
2021/12/08 00:47:48;;;;;;;7.65;3.58;;;;;;;3.42;100.00;99053.19;5090084;28;20028;-87
2021/12/08 00:50:14;;;;;;;6.60;3.70;;;;;;;3.43;100.00;99057.53;5089210;28;20024;-87
2021/12/08 00:52:40;;;;;;;6.70;3.80;;;;;;;3.49;100.00;99072.13;5089640;28;20115;-87
2021/12/08 00:55:08;;;;;;;7.75;4.15;;;;;;;3.44;100.00;99061.84;5088638;28;20492;-87
2021/12/08 00:57:34;;;;;;;5.82;3.67;;;;;;;3.44;100.00;99056.59;5090441;28;20032;-87
2021/12/08 01:00:02;;;;;;;9.15;3.40;;;;;;;3.53;100.00;99065.81;5089964;28;20422;-88
2021/12/08 01:02:27;;;;;;;6.95;3.33;;;;;;;3.56;100.00;99089.34;5089493;28;20028;-86
2021/12/08 01:04:53;;;;;;;5.90;3.10;;;;;;;3.48;100.00;99071.28;5087113;28;20028;-87
2021/12/08 01:07:18;;;;;;;4.28;3.20;;;;;;;3.47;100.00;99080.13;5088472;28;20119;-87
2021/12/08 01:09:44;;;;;;;6.75;3.13;;;;;;;3.46;100.00;99088.91;5089310;28;20035;-87
2021/12/08 01:12:09;;;;;;;5.43;3.50;;;;;;;3.48;100.00;99094.13;5089184;28;20500;-87
2021/12/08 01:14:35;;;;;;;6.25;3.45;;;;;;;3.52;100.00;99098.31;5085146;28;20036;-87
2021/12/08 01:17:03;;;;;;;7.07;3.60;;;;;;;3.52;100.00;99095.66;5087757;28;20100;-87
2021/12/08 01:19:29;;;;;;;8.30;4.43;;;;;;;3.58;100.00;99089.25;5087657;28;20490;-87
2021/12/08 01:21:54;;;;;;;6.15;3.90;;;;;;;3.49;100.00;99069.50;5085341;28;20158;-87
2021/12/08 01:24:20;;;;;;;4.22;3.65;;;;;;;3.64;100.00;99096.84;5085021;28;20040;-87
2021/12/08 01:26:46;;;;;;;5.25;4.18;;;;;;;3.59;100.00;99089.16;5089032;28;20032;-87
2021/12/08 01:29:12;;;;;;;7.25;4.00;;;;;;;3.69;100.00;99100.09;5089109;28;20024;-87
2021/12/08 01:31:41;;;;;;;6.53;3.70;;;;;;;3.72;100.00;99106.06;5089094;28;20027;-87
2021/12/08 01:34:06;;;;;;;7.25;3.60;;;;;;;3.74;100.00;99100.69;5085550;28;20103;-87
2021/12/08 01:36:32;;;;;;;6.70;3.90;;;;;;;3.75;100.00;99116.41;5087700;28;20643;-88
2021/12/08 01:38:57;;;;;;;6.80;3.60;;;;;;;3.78;100.00;99102.25;5088283;28;20016;-88
2021/12/08 01:41:24;;;;;;;6.57;3.30;;;;;;;3.81;100.00;99114.41;5088843;28;20024;-88
2021/12/08 01:46:33;;;;;;;3.72;2.50;;;;;;;3.84;100.00;99107.19;5086582;28;20085;-88
2021/12/08 01:48:59;;;;;;;3.40;2.67;;;;;;;3.86;100.00;99113.22;5087952;28;20028;-88
2021/12/08 01:51:25;;;;;;;6.22;2.88;;;;;;;3.96;100.00;99132.88;5087440;28;20048;-88
2021/12/08 01:53:53;;;;;;;9.68;3.30;;;;;;;3.94;100.00;99124.22;5086224;28;20055;-88
2021/12/08 01:56:21;;;;;;;4.80;2.67;;;;;;;3.99;100.00;99131.88;5088341;28;20036;-88
2021/12/08 01:58:47;;;;;;;6.03;2.53;;;;;;;4.01;100.00;99127.38;5088448;28;20024;-88
2021/12/08 02:01:17;;;;;;;6.38;2.60;;;;;;;4.05;100.00;99128.91;5087778;28;20024;-88
2021/12/08 02:03:42;;;;;;;6.63;2.80;;;;;;;4.04;100.00;99127.22;5086211;28;20024;-87
2021/12/08 02:06:10;;;;;;;8.90;3.42;;;;;;;4.02;100.00;99131.75;5086116;28;20905;-87
2021/12/08 02:08:37;;;;;;;5.03;2.60;;;;;;;4.07;100.00;99131.50;5086412;28;20043;-88
2021/12/08 02:11:04;;;;;;;6.65;2.85;;;;;;;4.06;100.00;99135.06;5087600;28;20048;-87
2021/12/08 02:13:36;;;;;;;7.68;2.88;;;;;;;4.06;100.00;99137.69;5086882;28;20023;-86
2021/12/08 02:16:02;;;;;;;8.73;2.83;;;;;;;4.05;100.00;99144.72;5087988;28;20028;-88
2021/12/08 02:18:28;;;;;;;8.93;3.28;;;;;;;4.07;100.00;99147.28;5088060;28;20099;-87
2021/12/08 02:20:58;;;;;;;11.98;3.13;;;;;;;4.11;100.00;99154.09;5084518;28;20496;-87
2021/12/08 02:23:24;;;;;;;8.52;2.63;;;;;;;4.09;100.00;99145.41;5086232;28;20020;-87
2021/12/08 02:25:50;;;;;;;5.32;2.85;;;;;;;4.12;100.00;99158.44;5087629;28;20419;-87
2021/12/08 02:28:16;;;;;;;6.82;3.60;;;;;;;4.05;100.00;99154.41;5086507;28;20024;-86
2021/12/08 02:30:50;;;;;;;6.15;3.00;;;;;;;4.17;100.00;99167.78;5088163;28;20024;-87
2021/12/08 02:47:29;;;;;;;7.47;2.78;;;;;;;4.14;100.00;99175.88;5084890;28;20176;-87
2021/12/08 02:49:56;;;;;;;5.38;2.92;;;;;;;4.15;100.00;99181.97;5085962;28;20088;-87
2021/12/08 02:52:22;;;;;;;12.02;3.50;;;;;;;4.11;100.00;99176.00;5086438;28;20032;-87
2021/12/08 02:54:49;;;;;;;7.85;3.55;;;;;;;4.12;100.00;99182.97;5085957;28;20030;-88
2021/12/08 02:57:17;;;;;;;7.80;3.20;;;;;;;4.05;100.00;99180.72;5087360;28;20043;-87
2021/12/08 02:59:43;;;;;;;6.68;3.20;;;;;;;3.98;100.00;99175.78;5086769;28;20149;-87
2021/12/08 03:02:09;;;;;;;6.75;3.10;;;;;;;3.95;100.00;99185.63;5086491;28;20038;-88
2021/12/08 03:04:35;;;;;;;8.95;3.42;;;;;;;3.92;100.00;99185.75;5085019;28;20016;-88
2021/12/08 03:07:00;;;;;;;10.52;3.03;;;;;;;3.91;100.00;99189.31;5086739;28;20362;-87
2021/12/08 03:09:25;;;;;;;11.48;4.05;;;;;;;3.84;100.00;99186.13;5085875;28;20034;-87
2021/12/08 03:11:55;;;;;;;13.27;4.20;;;;;;;3.82;100.00;99185.38;5086750;28;20035;-87
2021/12/08 03:14:21;;;;;;;11.35;3.83;;;;;;;3.82;100.00;99190.63;5086463;28;20036;-88
2021/12/08 03:16:49;;;;;;;9.30;3.33;;;;;;;3.84;100.00;99194.03;5086391;28;20034;-88
2021/12/08 03:19:15;;;;;;;12.15;3.42;;;;;;;3.85;100.00;99185.22;5086422;28;20105;-87
2021/12/08 03:21:41;;;;;;;5.80;3.05;;;;;;;3.87;100.00;99191.25;5087432;28;20455;-89
2021/12/08 03:24:25;;;;;;;12.77;3.10;;;;;;;3.93;100.00;99198.88;5085513;28;20016;-88
2021/12/08 03:29:34;;;;;;;11.40;2.95;;;;;;;3.93;100.00;99203.25;5086765;28;20044;-88
2021/12/08 03:32:07;;;;;;;7.32;3.35;;;;;;;3.94;100.00;99200.56;5085612;28;20416;-88
2021/12/08 03:34:36;;;;;;;10.38;3.20;;;;;;;3.93;100.00;99212.03;5084679;28;20123;-88
2021/12/08 03:37:03;;;;;;;9.43;2.72;;;;;;;3.94;100.00;99205.81;5085070;28;20032;-89
2021/12/08 03:39:29;;;;;;;7.32;3.42;;;;;;;3.95;100.00;99204.03;5085482;28;20071;-88
2021/12/08 03:41:54;;;;;;;6.85;3.10;;;;;;;3.93;100.00;99206.75;5084196;28;20509;-88
2021/12/08 03:44:19;;;;;;;7.25;2.78;;;;;;;3.85;100.00;99200.19;5083493;28;20035;-89
2021/12/08 03:46:45;;;;;;;7.78;2.72;;;;;;;3.90;100.00;99201.63;5086364;28;20063;-89
2021/12/08 03:49:16;;;;;;;7.38;3.25;;;;;;;3.87;100.00;99206.19;5086376;28;20066;-88
2021/12/08 03:51:42;;;;;;;6.40;2.60;;;;;;;3.91;100.00;99218.28;5086236;28;20042;-88
2021/12/08 03:54:09;;;;;;;9.18;2.70;;;;;;;3.86;100.00;99207.13;5085127;28;20024;-89
2021/12/08 03:56:34;;;;;;;7.65;3.38;;;;;;;3.74;100.00;99209.44;5085114;28;20035;-88
2021/12/08 03:59:00;;;;;;;8.18;3.40;;;;;;;3.65;100.00;99214.31;5085762;28;20132;-89
2021/12/08 04:01:25;;;;;;;6.72;3.50;;;;;;;3.54;100.00;99224.47;5085448;28;20712;-88
2021/12/08 04:03:51;;;;;;;8.57;3.10;;;;;;;3.42;100.00;99221.50;5082874;28;20039;-88
2021/12/08 04:06:31;;;;;;;10.77;3.70;;;;;;;3.35;100.00;99222.75;5087092;28;20028;-88
2021/12/08 04:08:58;;;;;;;11.70;3.08;;;;;;;3.23;100.00;99212.78;5085984;28;20222;-88
2021/12/08 04:11:26;;;;;;;7.82;3.45;;;;;;;3.26;100.00;99228.44;5085871;28;20029;-88
2021/12/08 04:13:58;;;;;;;7.95;3.13;;;;;;;3.25;100.00;99230.19;5083668;28;20552;-88
2021/12/08 04:16:29;;;;;;;7.70;3.13;;;;;;;3.24;100.00;99219.75;5087012;28;20030;-88
2021/12/08 04:18:57;;;;;;;11.40;3.17;;;;;;;3.09;100.00;99207.31;5089332;28;20089;-89
2021/12/08 04:21:23;;;;;;;7.57;2.88;;;;;;;3.30;100.00;99235.22;5090127;28;20039;-88
2021/12/08 04:23:49;;;;;;;10.02;3.03;;;;;;;3.29;100.00;99235.31;5088386;28;20103;-88
2021/12/08 04:26:22;;;;;;;10.23;2.88;;;;;;;3.28;100.00;99242.34;5089585;28;20108;-89
2021/12/08 04:28:52;;;;;;;9.32;2.47;;;;;;;3.20;100.00;99242.69;5087690;28;20024;-88
2021/12/08 04:31:30;;;;;;;8.65;2.35;;;;;;;3.17;100.00;99239.34;5088065;28;20024;-88
2021/12/08 04:34:01;;;;;;;13.00;3.08;;;;;;;3.14;100.00;99239.50;5087149;28;20465;-89
2021/12/08 04:36:32;;;;;;;9.27;2.35;;;;;;;2.99;100.00;99218.25;5085990;28;20090;-89
2021/12/08 04:39:01;;;;;;;6.65;2.20;;;;;;;3.03;100.00;99242.63;5087801;28;20081;-88
2021/12/08 04:41:37;;;;;;;10.02;2.35;;;;;;;3.01;100.00;99241.84;5090143;28;20023;-89
2021/12/08 04:44:17;;;;;;;5.57;2.45;;;;;;;3.00;100.00;99243.59;5086460;28;20027;-89
2021/12/08 04:47:16;;;;;;;5.68;2.08;;;;;;;2.95;100.00;99239.50;5087710;28;20496;-89
2021/12/08 05:04:02;;;;;;;8.73;2.50;;;;;;;2.57;100.00;99264.84;5080069;28;20036;-89
2021/12/08 05:06:48;;;;;;;3.20;2.35;;;;;;;2.46;100.00;99265.28;5089571;28;20024;-88
2021/12/08 05:09:23;;;;;;;6.40;2.10;;;;;;;2.42;100.00;99275.06;5088757;28;20036;-89
2021/12/08 05:11:55;;;;;;;7.90;2.42;;;;;;;2.37;100.00;99265.69;5087791;28;20028;-89
2021/12/08 05:14:27;;;;;;;7.97;2.38;;;;;;;2.42;100.00;99267.19;5086997;28;20047;-89
2021/12/08 05:17:06;;;;;;;6.82;2.00;;;;;;;2.43;100.00;99276.78;5089841;28;20039;-88
2021/12/08 05:19:33;;;;;;;8.10;2.70;;;;;;;2.43;100.00;99284.66;5087002;28;20089;-88
2021/12/08 05:22:17;;;;;;;7.43;2.28;;;;;;;2.42;100.00;99282.09;5087883;28;20081;-88
2021/12/08 05:24:45;;;;;;;;;;;;;;;2.42;100.00;99276.84;5089907;28;20437;-88
2021/12/08 05:27:20;;;;;;;8.82;3.10;;;;;;;2.39;100.00;99272.59;5087358;28;19916;-88
2021/12/08 05:30:05;;;;;;;12.43;2.90;;;;;;;2.35;100.00;99271.00;5089159;28;20016;-88
2021/12/08 05:32:31;;;;;;;9.40;2.40;;;;;;;2.37;100.00;99282.28;5084684;28;20107;-88
2021/12/08 05:34:57;;;;;;;12.90;2.30;;;;;;;2.40;100.00;99295.28;5094394;28;20040;-88
2021/12/08 05:37:24;;;;;;;6.97;2.25;;;;;;;2.42;100.00;99297.84;5088286;28;20102;-89
2021/12/08 05:39:50;;;;;;;6.63;2.78;;;;;;;2.41;100.00;99297.00;5089094;28;20024;-88
2021/12/08 05:42:20;;;;;;;13.43;3.47;;;;;;;2.40;100.00;99307.56;5087184;28;20024;-88
2021/12/08 05:44:45;;;;;;;18.25;3.35;;;;;;;2.42;100.00;99305.72;5089118;28;20024;-88
2021/12/08 05:47:15;;;;;;;10.70;3.30;;;;;;;2.40;100.00;99308.44;5088333;28;20040;-89
2021/12/08 05:49:42;;;;;;;10.40;3.20;;;;;;;2.46;100.00;99321.28;5087751;28;20039;-89
2021/12/08 05:52:08;;;;;;;8.23;3.22;;;;;;;2.47;100.00;99328.28;5085672;28;20528;-89
2021/12/08 05:54:37;;;;;;;7.53;3.15;;;;;;;2.54;100.00;99313.09;5089185;28;20111;-89
2021/12/08 05:57:07;;;;;;;9.02;2.60;;;;;;;2.53;100.00;99298.25;5087176;28;20028;-89
2021/12/08 05:59:33;;;;;;;9.30;2.97;;;;;;;2.53;100.00;99308.75;5088224;28;20051;-88
2021/12/08 06:02:04;;;;;;;8.32;2.72;;;;;;;2.40;100.00;99305.81;5085267;28;20029;-87
2021/12/08 06:04:31;;;;;;;12.10;4.00;;;;;;;2.39;100.00;99311.97;5088687;28;20028;-90
2021/12/08 06:06:58;;;;;;;10.82;2.80;;;;;;;2.40;100.00;99311.06;5088943;28;20027;-89
2021/12/08 06:09:25;;;;;;;12.27;3.33;;;;;;;2.46;100.00;99317.81;5088632;28;20074;-90
2021/12/08 06:11:51;;;;;;;6.70;2.47;;;;;;;2.45;100.00;99316.97;5084000;28;20024;-89
2021/12/08 06:14:19;;;;;;;8.90;2.97;;;;;;;2.48;100.00;99322.09;5087771;28;20024;-89
2021/12/08 06:16:47;;;;;;;10.13;2.97;;;;;;;2.49;100.00;99326.41;5088746;28;20435;-89
2021/12/08 06:19:14;;;;;;;13.25;3.65;;;;;;;2.49;100.00;99322.94;5073279;28;20098;-88
2021/12/08 06:21:40;;;;;;;12.73;2.75;;;;;;;2.47;100.00;99338.78;5066765;28;20028;-88
2021/12/08 06:24:08;;;;;;;10.82;2.85;;;;;;;2.47;100.00;99333.53;5047839;28;20495;-89
2021/12/08 06:26:34;;;;;;;7.93;3.00;;;;;;;2.47;100.00;99338.78;5068542;28;20136;-90
2021/12/08 06:29:01;;;;;;;12.35;3.38;;;;;;;2.48;100.00;99350.13;5071036;28;20124;-89
2021/12/08 06:31:29;;;;;;;13.50;3.17;;;;;;;2.52;100.00;99348.22;5067371;28;20033;-89
2021/12/08 06:33:55;;;;;;;12.93;3.60;;;;;;;2.58;100.00;99346.19;5067888;28;20016;-90
2021/12/08 06:36:31;;;;;;;14.40;3.33;;;;;;;2.62;100.00;99346.91;5068012;28;20034;-89
2021/12/08 06:38:57;;;;;;;10.57;3.25;;;;;;;2.74;100.00;99347.25;5066247;28;20071;-90
2021/12/08 06:41:31;;;;;;;13.07;3.00;;;;;;;2.80;100.00;99343.53;5067546;28;20024;-89
2021/12/08 06:44:10;;;;;;;12.15;2.95;;;;;;;2.75;100.00;99346.31;5068639;28;20046;-89
2021/12/08 06:46:38;;;;;;;8.93;3.03;;;;;;;2.78;99.50;99347.97;5050423;28;20035;-90
2021/12/08 06:49:08;;;;;;;11.90;2.83;;;;;;;2.72;99.52;99349.09;5067336;28;20099;-89
2021/12/08 06:51:41;;;;;;;11.35;3.05;;;;;;;2.69;99.50;99353.63;5066500;28;20070;-90
2021/12/08 06:54:19;;;;;;;8.82;2.78;;;;;;;2.65;99.32;99346.78;5066187;28;20028;-90
2021/12/08 06:56:53;;;;;;;9.75;3.35;;;;;;;2.57;99.66;99343.63;5067785;28;20535;-90
2021/12/08 06:59:23;;;;;;;8.15;2.78;;;;;;;2.52;99.50;99345.59;5067870;28;20054;-89
2021/12/08 07:07:01;;;;;;;11.82;3.33;;;;;;;2.34;99.62;99366.47;5067411;28;20119;-89
2021/12/08 07:09:42;;;;;;;12.05;3.80;;;;;;;2.32;99.76;99376.16;5066930;28;20478;-89
2021/12/08 07:12:29;;;;;;;12.82;3.28;;;;;;;2.34;99.79;99386.59;5068851;28;20064;-88
2021/12/08 07:15:05;;;;;;;14.02;3.22;;;;;;;2.28;100.00;99392.09;5066997;28;20028;-87
2021/12/08 07:17:34;;;;;;;11.05;2.90;;;;;;;2.25;99.56;99395.69;5069317;28;20113;-87
2021/12/08 07:20:15;;;;;;;8.38;3.35;;;;;;;2.24;99.54;99404.47;5090676;28;20040;-89
2021/12/08 07:22:45;;;;;;;6.85;2.78;;;;;;;2.23;99.55;99397.53;5080342;28;20593;-87
2021/12/08 07:25:13;;;;;;;9.45;3.22;;;;;;;2.20;99.41;99392.41;5085960;28;20162;-90
2021/12/08 07:27:39;;;;;;;9.95;3.13;;;;;;;2.14;99.32;99400.53;5081861;28;20035;-89
2021/12/08 07:30:11;;;;;;;11.35;3.25;;;;;;;2.14;99.62;99406.63;5085515;28;20393;-89
2021/12/08 07:32:38;;;;;;;11.27;2.90;;;;;;;2.10;99.73;99406.81;5081236;28;20032;-91
2021/12/08 07:35:14;;;;;;;9.77;3.20;;;;;;;2.10;99.76;99414.69;5085341;28;20530;-88
2021/12/08 07:37:39;;;;;;;12.68;3.20;;;;;;;1.99;100.00;99415.94;5085096;28;20093;-88
2021/12/08 07:40:25;;;;;;;10.68;3.90;;;;;;;2.03;99.85;99408.81;5085537;28;20119;-88
2021/12/08 07:42:55;;;;;;;7.28;2.83;;;;;;;2.08;99.55;99427.84;5081940;28;20031;-88
2021/12/08 07:45:25;;;;;;;12.02;2.88;;;;;;;2.10;99.39;99433.91;5084409;28;20027;-88
2021/12/08 07:47:53;;;;;;;12.85;2.88;;;;;;;2.13;99.42;99435.53;5085196;28;20138;-87
2021/12/08 07:50:25;;;;;;;11.65;3.10;;;;;;;2.23;98.88;99437.75;5083455;28;20060;-87
2021/12/08 07:52:53;;;;;;;6.47;2.53;;;;;;;2.33;98.74;99435.63;5077815;28;20043;-85
2021/12/08 07:55:33;;;;;;;7.57;2.88;;;;;;;2.43;98.35;99447.47;5076218;28;20043;-87
2021/12/08 07:57:59;;;;;;;7.93;2.88;;;;;;;2.53;97.94;99447.09;5086486;28;20058;-88
2021/12/08 08:00:36;;;;;;;11.50;3.13;;;;;;;2.64;97.55;99434.41;5082811;28;20027;-87
2021/12/08 08:03:03;;;;;;;8.75;3.10;;;;;;;2.65;97.32;99434.34;5085445;28;20024;-87
2021/12/08 08:05:32;;;;;;;9.15;2.90;;;;;;;2.72;96.24;99442.81;5085328;28;20508;-88
2021/12/08 08:08:02;;;;;;;6.85;2.55;;;;;;;2.72;96.57;99443.69;5085142;28;20024;-88
2021/12/08 08:10:30;;;;;;;9.02;3.08;;;;;;;2.79;96.14;99443.41;5083117;28;20024;-88
2021/12/08 08:13:02;;;;;;;10.90;3.08;;;;;;;2.82;96.11;99435.41;5085494;28;20028;-88
2021/12/08 08:15:33;;;;;;;11.65;3.40;;;;;;;2.88;95.52;99449.13;5087581;28;20111;-88
2021/12/08 08:18:04;;;;;;;10.75;2.80;;;;;;;2.91;94.81;99446.38;5083220;28;20405;-88
2021/12/08 08:20:33;;;;;;;8.48;3.33;;;;;;;2.94;94.34;99448.91;5082799;28;20047;-88
2021/12/08 08:23:00;;;;;;;6.80;2.80;;;;;;;2.93;94.75;99441.94;5082301;28;20127;-88
2021/12/08 08:25:34;;;;;;;9.88;2.88;;;;;;;2.97;94.08;99456.66;5077111;28;20028;-89
2021/12/08 08:28:00;;;;;;;8.88;2.80;;;;;;;3.03;94.13;99465.19;5077120;28;20055;-88
2021/12/08 08:30:31;;;;;;;7.55;2.83;;;;;;;3.07;93.60;99451.00;5082552;28;20043;-89
2021/12/08 08:32:58;;;;;;;8.38;2.85;;;;;;;3.04;93.20;99445.88;5081070;28;20028;-87
2021/12/08 08:35:33;;;;;;;10.95;2.75;;;;;;;3.11;93.33;99452.59;5082534;28;20080;-89
2021/12/08 08:38:05;;;;;;;9.13;2.97;;;;;;;3.15;92.76;99462.06;5082624;28;20571;-88
2021/12/08 08:40:46;;;;;;;7.05;2.40;;;;;;;3.19;91.80;99438.19;5082562;28;20128;-87
2021/12/08 08:43:12;;;;;;;8.88;3.55;;;;;;;3.23;91.05;99441.53;5074964;28;20032;-88
2021/12/08 08:45:44;;;;;;;9.50;2.60;;;;;;;3.31;90.83;99425.44;5082346;28;20028;-88
2021/12/08 08:48:13;;;;;;;7.43;2.60;;;;;;;3.24;90.54;99415.19;5080708;28;20047;-88
2021/12/08 08:51:11;;;;;;;6.32;2.63;;;;;;;3.22;91.73;99424.06;5080746;28;20020;-88
2021/12/08 08:53:40;;;;;;;7.80;2.47;;;;;;;3.03;91.78;99413.47;5082531;28;20031;-88
2021/12/08 08:56:12;;;;;;;8.57;3.00;;;;;;;3.01;91.74;99417.97;5086273;28;20035;-87
2021/12/08 08:58:39;;;;;;;8.80;3.00;;;;;;;2.92;91.53;99432.31;5083327;28;20070;-86
2021/12/08 09:01:13;;;;;;;8.00;2.97;;;;;;;2.87;92.28;99426.41;5080857;28;20103;-87
2021/12/08 09:03:41;;;;;;;8.10;2.50;;;;;;;2.84;92.29;99423.91;5085375;28;20028;-86
2021/12/08 09:06:12;;;;;;;13.60;2.67;;;;;;;2.84;92.22;99428.31;5084774;28;20043;-86
2021/12/08 09:08:39;;;;;;;7.72;3.08;;;;;;;2.83;91.81;99439.75;5087365;28;20409;-88
2021/12/08 09:11:33;;;;;;;12.70;3.55;;;;;;;2.88;92.29;99443.03;5084281;28;20020;-84
2021/12/08 09:14:15;;;;;;;7.78;2.58;;;;;;;2.90;92.21;99449.09;5075801;28;20489;-86
2021/12/08 09:16:55;;;;;;;7.65;2.70;;;;;;;2.86;92.34;99437.84;5088736;28;20036;-83
2021/12/08 09:19:24;;;;;;;10.63;2.40;;;;;;;2.76;91.67;99428.66;5086323;28;20051;-85
2021/12/08 09:22:06;;;;;;;9.95;2.70;;;;;;;2.81;92.04;99447.69;5083350;28;20027;-87
2021/12/08 09:24:39;;;;;;;7.03;3.13;;;;;;;2.84;92.18;99460.69;5084837;28;20027;-87
2021/12/08 09:27:09;;;;;;;7.15;3.00;;;;;;;2.87;92.51;99459.72;5089929;28;20302;-88
2021/12/08 09:29:44;;;;;;;8.68;2.58;;;;;;;2.92;92.03;99469.13;5078698;28;20252;-86
2021/12/08 09:32:36;;;;;;;10.43;3.28;;;;;;;2.85;92.83;99454.53;5087242;28;20020;-87
2021/12/08 09:35:10;;;;;;;9.48;2.80;;;;;;;2.92;92.74;99470.88;5076487;28;20413;-87
2021/12/08 09:37:41;;;;;;;10.98;3.10;;;;;;;2.87;92.53;99463.19;5084732;28;20365;-87
2021/12/08 09:40:19;;;;;;;7.70;2.80;;;;;;;2.95;92.78;99470.78;5079794;28;20039;-85
2021/12/08 09:42:50;;;;;;;14.25;3.65;;;;;;;2.95;92.41;99465.50;5085162;28;20428;-86
2021/12/08 09:45:31;;;;;;;8.13;2.90;;;;;;;2.90;92.23;99465.72;5084444;28;20019;-86
2021/12/08 09:48:02;;;;;;;8.50;2.92;;;;;;;2.99;92.51;99472.34;5083723;28;20086;-86
2021/12/08 09:50:27;;;;;;;10.70;3.35;;;;;;;3.03;92.10;99462.56;5082222;28;20024;-86
2021/12/08 09:52:54;;;;;;;15.10;3.20;;;;;;;3.06;92.27;99460.66;5083519;28;20351;-86
2021/12/08 09:55:19;;;;;;;8.68;2.72;;;;;;;3.07;92.13;99446.59;5082706;28;20028;-87
2021/12/08 09:57:46;;;;;;;7.35;2.90;;;;;;;3.09;92.17;99449.16;5085663;28;20121;-86
2021/12/08 10:00:22;;;;;;;10.23;3.10;;;;;;;3.06;92.07;99444.91;5078590;28;20035;-86
2021/12/08 10:02:48;;;;;;;9.50;3.00;;;;;;;3.09;91.84;99443.91;5084476;28;20032;-86
2021/12/08 10:05:15;;;;;;;8.05;2.88;;;;;;;3.14;91.58;99445.44;5082292;28;20040;-86
2021/12/08 10:07:43;;;;;;;9.65;3.53;;;;;;;3.14;91.29;99442.81;5080180;28;20051;-86
2021/12/08 10:10:12;;;;;;;6.18;2.70;;;;;;;3.18;90.55;99438.28;5084589;28;20036;-88
2021/12/08 10:12:38;;;;;;;6.85;2.33;;;;;;;3.28;90.36;99450.09;5088229;28;20020;-84
2021/12/08 10:15:12;;;;;;;9.27;2.60;;;;;;;3.39;89.93;99444.38;5077788;28;20484;-85
2021/12/08 10:17:37;;;;;;;7.32;2.55;;;;;;;3.39;89.59;99436.47;5074336;28;20032;-86
2021/12/08 10:20:14;;;;;;;9.73;3.55;;;;;;;3.43;89.35;99438.06;5085722;28;20031;-87
2021/12/08 10:22:42;;;;;;;10.57;3.20;;;;;;;3.49;90.18;99437.78;5080995;28;20028;-87
2021/12/08 10:25:13;;;;;;;6.15;2.88;;;;;;;3.62;90.09;99427.56;5085472;28;20016;-87
2021/12/08 10:28:01;;;;;;;9.98;2.85;;;;;;;3.76;90.31;99419.88;5090151;28;20070;-87
2021/12/08 10:30:27;;;;;;;10.05;2.85;;;;;;;3.74;89.13;99413.84;5084830;28;20024;-87
2021/12/08 10:32:54;;;;;;;7.53;2.65;;;;;;;3.66;88.61;99416.81;5069033;28;20021;-87
2021/12/08 10:35:48;;;;;;;7.18;2.65;;;;;;;3.63;89.50;99414.31;5082102;28;20028;-87
2021/12/08 10:38:16;;;;;;;;;;;;;;;3.60;91.20;99411.84;5091551;28;20036;-86
2021/12/08 10:40:56;;;;;;;10.57;2.95;;;;;;;3.47;89.73;99387.03;5089015;28;19920;-86
2021/12/08 10:43:22;;;;;;;13.57;3.05;;;;;;;3.47;89.17;99398.41;5089339;28;20024;-87
2021/12/08 10:46:02;;;;;;;12.25;2.75;;;;;;;3.52;89.50;99415.75;5080454;28;20025;-87
2021/12/08 10:48:36;;;;;;;7.03;2.55;;;;;;;3.45;88.46;99391.47;5068641;28;20023;-87
2021/12/08 10:56:37;;;;;;;7.25;3.03;;;;;;;3.69;88.17;99413.22;5105122;28;20043;-86
2021/12/08 10:59:02;;;;;;;8.30;2.85;;;;;;;3.78;88.07;99410.16;5080663;28;20026;-87
2021/12/08 11:01:28;;;;;;;10.73;4.00;;;;;;;3.82;87.90;99397.72;5088417;28;20519;-87
2021/12/08 11:04:05;;;;;;;7.28;3.20;;;;;;;3.96;88.73;99429.50;5088523;28;20385;-86
2021/12/08 11:06:36;;;;;;;9.25;2.63;;;;;;;3.99;87.62;99437.25;5089165;28;20039;-87
2021/12/08 11:09:06;;;;;;;5.70;2.50;;;;;;;4.02;87.72;99442.41;5069640;28;20490;-87
2021/12/08 11:11:33;;;;;;;10.70;2.92;;;;;;;4.02;87.92;99436.28;5089054;28;20481;-87
2021/12/08 11:14:03;;;;;;;6.30;2.28;;;;;;;4.04;86.59;99451.06;5088730;28;20024;-86
2021/12/08 11:16:35;;;;;;;8.93;2.88;;;;;;;4.00;87.53;99460.88;5081726;28;20145;-86
2021/12/08 11:19:10;;;;;;;7.35;3.05;;;;;;;4.00;88.36;99455.59;5069887;28;20047;-87
2021/12/08 11:21:39;;;;;;;7.88;3.58;;;;;;;4.05;88.32;99447.50;5067578;28;20081;-88
2021/12/08 11:24:11;;;;;;;5.30;2.60;;;;;;;4.13;87.97;99462.94;5075171;28;20051;-88
2021/12/08 11:26:41;;;;;;;6.88;2.70;;;;;;;4.31;87.09;99462.09;5083498;28;20445;-88
2021/12/08 11:29:17;;;;;;;8.48;2.95;;;;;;;4.59;88.14;99481.84;5086289;28;20035;-88
2021/12/08 11:31:52;;;;;;;7.03;2.25;;;;;;;4.85;86.67;99485.84;5081974;28;20012;-86
2021/12/08 11:34:22;;;;;;;6.25;2.42;;;;;;;5.12;85.23;99481.84;5090321;28;20032;-86
2021/12/08 11:36:52;;;;;;;7.25;2.70;;;;;;;5.24;84.31;99478.59;5088997;28;20043;-88
2021/12/08 11:39:26;;;;;;;6.00;2.40;;;;;;;5.29;84.78;99478.38;5080195;28;20032;-87
2021/12/08 11:41:55;;;;;;;4.90;2.33;;;;;;;5.35;83.88;99482.47;5088960;28;20034;-86
2021/12/08 11:44:27;;;;;;;5.50;2.13;;;;;;;5.40;83.95;99489.22;5086501;28;20431;-88
2021/12/08 11:46:55;;;;;;;6.28;2.60;;;;;;;5.38;83.72;99482.31;5069912;28;20012;-87
2021/12/08 11:49:22;;;;;;;5.68;2.53;;;;;;;5.42;84.17;99489.16;5086299;28;20024;-87
2021/12/08 11:51:51;;;;;;;6.30;2.70;;;;;;;5.43;83.92;99507.56;5074722;28;20074;-87
2021/12/08 11:54:34;;;;;;;7.78;2.47;;;;;;;5.40;85.12;99498.94;5051783;28;20025;-86
2021/12/08 11:57:12;;;;;;;5.53;2.30;;;;;;;5.30;85.45;99513.50;5067730;28;20067;-86
2021/12/08 11:59:45;;;;;;;4.93;2.25;;;;;;;5.17;85.04;99503.56;5077302;28;20542;-87
2021/12/08 12:02:13;;;;;;;4.30;2.20;;;;;;;5.06;85.45;99497.13;5088552;28;20016;-86
2021/12/08 12:04:40;;;;;;;8.60;2.25;;;;;;;5.10;85.86;99509.22;5081441;28;20030;-87
2021/12/08 12:07:11;;;;;;;7.97;2.50;;;;;;;5.01;84.98;99502.63;5086551;28;20032;-86
2021/12/08 12:09:37;;;;;;;11.65;3.03;;;;;;;4.96;85.94;99502.00;5077804;28;20311;-87
2021/12/08 12:12:03;;;;;;;6.60;2.75;;;;;;;4.94;nan;99503.88;5081048;28;20108;-87
2021/12/08 12:14:31;;;;;;;8.18;2.35;;;;;;;4.99;85.80;99513.25;5049660;28;20120;-87
2021/12/08 12:16:56;;;;;;;4.70;2.00;;;;;;;5.11;85.84;99526.78;5067756;28;20028;-86
2021/12/08 12:19:27;;;;;;;7.25;2.50;;;;;;;5.11;85.65;99527.63;5075659;28;20573;-87
2021/12/08 12:22:02;;;;;;;9.65;3.03;;;;;;;4.99;86.16;99529.09;5091066;28;20028;-86
2021/12/08 12:24:43;;;;;;;6.32;2.75;;;;;;;4.98;85.82;99540.56;5071407;28;20024;-85
2021/12/08 12:27:26;;;;;;;8.38;2.35;;;;;;;4.93;84.90;99555.75;5074954;28;20020;-87
2021/12/08 12:29:57;;;;;;;9.18;2.95;;;;;;;4.87;85.63;99560.47;5086078;28;20123;-86
2021/12/08 12:32:28;;;;;;;8.95;3.25;;;;;;;4.75;86.34;99561.91;5077572;28;20025;-86
2021/12/08 12:35:11;;;;;;;7.90;2.78;;;;;;;4.74;86.39;99565.47;5074393;28;20078;-86
2021/12/08 12:37:38;;;;;;;4.35;2.88;;;;;;;4.69;86.02;99578.00;5070339;28;20138;-88